Map

Track Data

SID SEASON NUMBER BASIN SUBBASIN NAME ISO_TIME NATURE LAT LON WMO_WIND WMO_PRES WMO_AGENCY TRACK_TYPE DIST2LAND LANDFALL IFLAG USA_AGENCY USA_ATCF_ID USA_LAT USA_LON USA_RECORD USA_STATUS USA_WIND USA_PRES USA_SSHS USA_R34_NE USA_R34_SE USA_R34_SW USA_R34_NW USA_R50_NE USA_R50_SE USA_R50_SW USA_R50_NW USA_R64_NE USA_R64_SE USA_R64_SW USA_R64_NW USA_POCI USA_ROCI USA_RMW USA_EYE TOKYO_LAT TOKYO_LON TOKYO_GRADE TOKYO_WIND TOKYO_PRES TOKYO_R50_DIR TOKYO_R50_LONG TOKYO_R50_SHORT TOKYO_R30_DIR TOKYO_R30_LONG TOKYO_R30_SHORT TOKYO_LAND CMA_LAT CMA_LON CMA_CAT CMA_WIND CMA_PRES HKO_LAT HKO_LON HKO_CAT HKO_WIND HKO_PRES NEWDELHI_LAT NEWDELHI_LON NEWDELHI_GRADE NEWDELHI_WIND NEWDELHI_PRES NEWDELHI_CI NEWDELHI_DP NEWDELHI_POCI REUNION_LAT REUNION_LON REUNION_TYPE REUNION_WIND REUNION_PRES REUNION_TNUM REUNION_CI REUNION_RMW REUNION_R34_NE REUNION_R34_SE REUNION_R34_SW REUNION_R34_NW REUNION_R50_NE REUNION_R50_SE REUNION_R50_SW REUNION_R50_NW REUNION_R64_NE REUNION_R64_SE REUNION_R64_SW REUNION_R64_NW BOM_LAT BOM_LON BOM_TYPE BOM_WIND BOM_PRES BOM_TNUM BOM_CI BOM_RMW BOM_R34_NE BOM_R34_SE BOM_R34_SW BOM_R34_NW BOM_R50_NE BOM_R50_SE BOM_R50_SW BOM_R50_NW BOM_R64_NE BOM_R64_SE BOM_R64_SW BOM_R64_NW BOM_ROCI BOM_POCI BOM_EYE BOM_POS_METHOD BOM_PRES_METHOD NADI_LAT NADI_LON NADI_CAT NADI_WIND NADI_PRES WELLINGTON_LAT WELLINGTON_LON WELLINGTON_WIND WELLINGTON_PRES DS824_LAT DS824_LON DS824_STAGE DS824_WIND DS824_PRES TD9636_LAT TD9636_LON TD9636_STAGE TD9636_WIND TD9636_PRES TD9635_LAT TD9635_LON TD9635_WIND TD9635_PRES TD9635_ROCI NEUMANN_LAT NEUMANN_LON NEUMANN_CLASS NEUMANN_WIND NEUMANN_PRES MLC_LAT MLC_LON MLC_CLASS MLC_WIND MLC_PRES USA_GUST BOM_GUST BOM_GUST_PER REUNION_GUST REUNION_GUST_PER USA_SEAHGT USA_SEARAD_NE USA_SEARAD_SE USA_SEARAD_SW USA_SEARAD_NW STORM_SPEED STORM_DIR
1910240N21122 1910 34 WP MM NOT_NAMED 1910-08-28 04:00:00 NR 20.8000 121.600 main 142 133 __________O___ -1 20.8000 121.600 4 3 331
1910240N21122 1910 34 WP MM NOT_NAMED 1910-08-28 06:00:00 NR 20.8845 121.560 main 133 118 __________P___ -1 20.8845 121.560 4 3 336
1910240N21122 1910 34 WP MM NOT_NAMED 1910-08-28 09:00:00 NR 21.0107 121.496 main 118 103 __________P___ -1 21.0107 121.496 4 3 333
1910240N21122 1910 34 WP MM NOT_NAMED 1910-08-28 12:00:00 NR 21.1359 121.422 main 103 78 __________P___ -1 21.1359 121.422 4 3 329
1910240N21122 1910 34 WP MM NOT_NAMED 1910-08-28 15:00:00 NR 21.2594 121.334 main 78 78 __________P___ -1 21.2594 121.334 4 3 326
1910240N21122 1910 34 WP MM NOT_NAMED 1910-08-28 16:00:00 NR 21.3000 121.300 main 78 63 __________O___ -1 21.3000 121.300 4 3 320
1910240N21122 1910 34 WP MM NOT_NAMED 1910-08-28 18:00:00 NR 21.3801 121.225 main 63 49 __________P___ -1 21.3801 121.225 4 3 315
1910240N21122 1910 34 WP MM NOT_NAMED 1910-08-28 21:00:00 NR 21.4941 121.087 main 49 33 __________P___ -1 21.4941 121.087 4 4 306
1910240N21122 1910 34 WP MM NOT_NAMED 1910-08-29 00:00:00 NR 21.5954 120.910 main 33 22 __________P___ -1 21.5954 120.910 4 4 296
1910240N21122 1910 34 WP MM NOT_NAMED 1910-08-29 03:00:00 NR 21.6778 120.687 main 22 22 __________P___ -1 21.6778 120.687 4 5 290
1910240N21122 1910 34 WP MM NOT_NAMED 1910-08-29 04:00:00 NR 21.7000 120.600 main 24 24 __________O___ -1 21.7000 120.600 4 5 284
1910240N21122 1910 34 WP MM NOT_NAMED 1910-08-29 06:00:00 NR 21.7391 120.412 main 38 38 __________P___ -1 21.7391 120.412 4 6 279
1910240N21122 1910 34 WP MM NOT_NAMED 1910-08-29 09:00:00 NR 21.7789 120.086 main 62 62 __________P___ -1 21.7789 120.086 4 6 275
1910240N21122 1910 34 WP MM NOT_NAMED 1910-08-29 12:00:00 NR 21.7988 119.721 main 99 99 __________P___ -1 21.7988 119.721 4 7 272
1910240N21122 1910 34 WP MM NOT_NAMED 1910-08-29 15:00:00 NR 21.8020 119.332 main 129 129 __________P___ -1 21.8020 119.332 4 7 270
1910240N21122 1910 34 WP MM NOT_NAMED 1910-08-29 16:00:00 NR 21.8000 119.200 main 137 137 __________O___ -1 21.8000 119.200 4 7 269
1910240N21122 1910 34 WP MM NOT_NAMED 1910-08-29 18:00:00 NR 21.7971 118.953 main 155 164 __________P___ -1 21.7971 118.953 4 7 268
1910240N21122 1910 34 WP MM NOT_NAMED 1910-08-29 21:00:00 NR 21.7804 118.569 main 191 201 __________P___ -1 21.7804 118.569 4 7 266
1910240N21122 1910 34 WP MM NOT_NAMED 1910-08-30 00:00:00 NR 21.7516 118.168 main 213 182 __________P___ -1 21.7516 118.168 4 8 265
1910240N21122 1910 34 WP MM NOT_NAMED 1910-08-30 03:00:00 NR 21.7140 117.746 main 182 175 __________P___ -1 21.7140 117.746 4 8 264
1910240N21122 1910 34 WP MM NOT_NAMED 1910-08-30 04:00:00 NR 21.7000 117.600 main 175 157 __________O___ -1 21.7000 117.600 4 8 264
1910240N21122 1910 34 WP MM NOT_NAMED 1910-08-30 06:00:00 NR 21.6696 117.303 main 157 147 __________P___ -1 21.6696 117.303 4 9 263
1910240N21122 1910 34 WP MM NOT_NAMED 1910-08-30 09:00:00 NR 21.6177 116.839 main 148 137 __________P___ -1 21.6177 116.839 4 9 263
1910240N21122 1910 34 WP MM NOT_NAMED 1910-08-30 12:00:00 NR 21.5639 116.357 main 137 129 __________P___ -1 21.5639 116.357 4 9 263
1910240N21122 1910 34 WP MM NOT_NAMED 1910-08-30 15:00:00 NR 21.5144 115.865 main 134 134 __________P___ -1 21.5144 115.865 4 9 264
1910240N21122 1910 34 WP MM NOT_NAMED 1910-08-30 16:00:00 NR 21.5000 115.700 main 134 123 __________O___ -1 21.5000 115.700 4 9 267
1910240N21122 1910 34 WP MM NOT_NAMED 1910-08-30 18:00:00 NR 21.4876 115.386 main 123 108 __________P___ -1 21.4876 115.386 4 9 268
1910240N21122 1910 34 WP MM NOT_NAMED 1910-08-30 21:00:00 NR 21.4757 114.909 main 108 90 __________P___ -1 21.4757 114.909 4 9 268
1910240N21122 1910 34 WP MM NOT_NAMED 1910-08-31 00:00:00 NR 21.4584 114.412 main 90 89 __________P___ -1 21.4584 114.412 4 10 267
1910240N21122 1910 34 WP MM NOT_NAMED 1910-08-31 03:00:00 NR 21.4201 113.885 main 98 88 __________P___ -1 21.4201 113.885 4 10 265
1910240N21122 1910 34 WP MM NOT_NAMED 1910-08-31 04:00:00 NR 21.4000 113.700 main 88 69 __________O___ -1 21.4000 113.700 4 11 262
1910240N21122 1910 34 WP MM NOT_NAMED 1910-08-31 06:00:00 NR 21.3396 113.304 main 73 59 __________P___ -1 21.3396 113.304 4 12 260
1910240N21122 1910 34 WP MM NOT_NAMED 1910-08-31 09:00:00 NR 21.2239 112.678 main 67 55 __________P___ -1 21.2239 112.678 4 12 258
1910240N21122 1910 34 WP MM NOT_NAMED 1910-08-31 12:00:00 NR 21.0886 112.036 main 59 45 __________P___ -1 21.0886 112.036 4 12 257
1910240N21122 1910 34 WP MM NOT_NAMED 1910-08-31 15:00:00 NR 20.9466 111.404 main 56 55 __________P___ -1 20.9466 111.404 4 12 256
1910240N21122 1910 34 WP MM NOT_NAMED 1910-08-31 16:00:00 NR 20.9000 111.200 main 56 43 __________O___ -1 20.9000 111.200 4 12 256
1910240N21122 1910 34 WP MM NOT_NAMED 1910-08-31 18:00:00 NR 20.8100 110.805 main 43 0 __________P___ -1 20.8100 110.805 4 11 256
1910240N21122 1910 34 WP MM NOT_NAMED 1910-08-31 21:00:00 NR 20.6819 110.240 main 0 0 __________P___ -1 20.6819 110.240 4 11 256
1910240N21122 1910 34 WP MM NOT_NAMED 1910-09-01 00:00:00 NR 20.5595 109.700 main 10 10 __________P___ -1 20.5595 109.700 4 10 256
1910240N21122 1910 34 WP MM NOT_NAMED 1910-09-01 03:00:00 NR 20.4398 109.174 main 63 69 __________P___ -1 20.4398 109.174 4 10 256
1910240N21122 1910 34 WP MM NOT_NAMED 1910-09-01 04:00:00 NR 20.4000 109.000 main 74 __________O___ -1 20.4000 109.000 4 10 256

Digital Typhoon Data and Search

About IBTrACS Database

This database is a web-friendly format of International Best Track Archive for Climate Stewardship (IBTrACS), a global best track data archive curated by NOAA dating back to 1842.

Updated: 2021-11-26